KPUC/PUC METAR and TAF weather

Enter ICAO airport designator
Station Type Date Time Source
KPUC METAR 2021/03/06 03:53 UTC NOAA

KPUC 060353Z AUTO 07007KT 10SM CLR 04/M09 A3023 RMK AO2 SLP252 T00441094


Station Type Date Time Source
KPUC Decoded METAR 2021/03/06 03:53 UTC NOAA

PRICE CARBON COUNTY AIRPORT, UT, United States (KPUC) 39-37N 110-45W 2091M
Mar 05, 2021 - 10:53 PM EST / 2021.03.06 0353 UTC
Wind: from the ENE (070 degrees) at 8 MPH (7 KT):0
Visibility: 10 mile(s):0
Sky conditions: clear
Temperature: 39.9 F (4.4 C)
Dew Point: 15.1 F (-9.4 C)
Relative Humidity: 35%
Pressure (altimeter): 30.23 in. Hg (1023 hPa)
ob: KPUC 060353Z AUTO 07007KT 10SM CLR 04/M09 A3023 RMK AO2 SLP252 T00441094
cycle: 4

Station Type Date Time Source
KPUC TAF UTC NOAA

Error!

Example: see airport list